Time;durP1;ratioP1;P1;durP2;ratioP2;P2;SDS_P1;SDS_P2;PMS_P1;PMS_P2;Temp;Humidity;BMP_temperature;BMP_pressure;BME280_temperature;BME280_humidity;BME280_pressure;Samples;Min_cycle;Max_cycle;Signal;HPM_P1;HPM_P2
2022/02/27 00:00:19;;;;;;;50.90;21.90;;;;;;;0.10;82.58;100016.88;105703;1280;138357;-74
2022/02/27 00:03:06;;;;;;;48.20;23.00;;;;;;;0.11;82.53;100017.50;105823;1280;24357;-74
2022/02/27 00:05:33;;;;;;;41.80;20.60;;;;;;;0.11;82.48;100018.12;105872;1278;138842;-73
2022/02/27 00:08:00;;;;;;;41.60;19.90;;;;;;;0.08;82.54;100018.37;105862;1280;25273;-74
2022/02/27 00:10:27;;;;;;;38.50;20.60;;;;;;;0.08;82.54;100022.26;105909;1278;25423;-74
2022/02/27 00:12:54;;;;;;;39.30;20.80;;;;;;;0.08;82.67;100021.79;105658;1280;139903;-74
2022/02/27 00:15:21;;;;;;;37.70;21.30;;;;;;;0.07;82.87;100026.89;106055;1280;23053;-73
2022/02/27 00:17:48;;;;;;;39.50;20.30;;;;;;;0.05;82.83;100027.33;105839;1280;138636;-73
2022/02/27 00:20:16;;;;;;;39.70;20.50;;;;;;;0.05;82.94;100028.06;105946;1280;22567;-73
2022/02/27 00:22:42;;;;;;;39.40;19.20;;;;;;;0.06;82.90;100034.41;106129;1278;23937;-74
2022/02/27 00:25:10;;;;;;;40.70;19.90;;;;;;;0.06;82.98;100033.68;105901;1278;137891;-73
2022/02/27 00:27:38;;;;;;;43.70;20.70;;;;;;;0.08;82.98;100030.89;106130;1280;25340;-73
2022/02/27 00:30:07;;;;;;;40.80;21.60;;;;;;;0.08;82.99;100035.11;106045;1277;138155;-73
2022/02/27 00:32:36;;;;;;;38.20;20.10;;;;;;;0.07;82.99;100035.42;106013;1279;22663;-74
2022/02/27 00:35:05;;;;;;;41.90;19.70;;;;;;;0.08;83.29;100034.75;106131;1280;22554;-73
2022/02/27 00:37:33;;;;;;;;;;;;;;;0.09;82.81;100034.30;105872;1280;138403;-73
2022/02/27 00:40:00;;;;;;;40.40;18.10;;;;;;;0.07;82.73;100032.89;106031;1280;22571;-73
2022/02/27 00:42:27;;;;;;;36.40;18.00;;;;;;;0.04;82.80;100035.85;105903;1278;138600;-73
2022/02/27 00:44:54;;;;;;;36.90;19.20;;;;;;;0.02;83.00;100037.45;105859;1279;26184;-73
2022/02/27 00:47:22;;;;;;;38.10;19.90;;;;;;;0.02;82.94;100038.01;106213;1277;138987;-73
2022/02/27 00:49:51;;;;;;;41.90;19.40;;;;;;;0.01;82.82;100033.50;105958;1278;24304;-73
2022/02/27 00:52:22;;;;;;;42.40;19.60;;;;;;;-0.00;82.89;100044.27;106090;1278;22717;-74
2022/02/27 00:54:50;;;;;;;41.30;19.50;;;;;;;0.00;82.86;100039.95;106197;1280;138234;-73
2022/02/27 00:57:19;;;;;;;30.90;18.30;;;;;;;-0.01;83.10;100042.16;106298;1280;22560;-73
2022/02/27 00:59:46;;;;;;;36.00;18.50;;;;;;;-0.03;82.82;100041.41;106244;1280;138006;-73
2022/02/27 01:02:16;;;;;;;47.60;21.40;;;;;;;-0.06;83.00;100042.45;106145;1278;22589;-75
2022/02/27 01:04:43;;;;;;;37.80;20.50;;;;;;;-0.08;83.24;100044.98;105606;1280;23967;-74
2022/02/27 01:07:10;;;;;;;41.80;19.50;;;;;;;-0.09;83.24;100043.05;105912;1278;138496;-74
2022/02/27 01:09:37;;;;;;;38.40;20.00;;;;;;;-0.08;83.52;100044.58;106023;1278;22563;-73
2022/02/27 01:12:06;;;;;;;38.10;18.60;;;;;;;-0.07;83.50;100045.60;105955;1280;137811;-73
2022/02/27 01:14:33;;;;;;;44.70;21.90;;;;;;;-0.07;83.76;100049.10;106114;1280;25223;-72
2022/02/27 01:17:06;;;;;;;43.20;22.10;;;;;;;-0.05;83.96;100046.14;106158;1280;25460;-72
2022/02/27 01:19:34;;;;;;;44.40;21.00;;;;;;;-0.05;83.88;100044.85;105774;1280;138755;-72
2022/02/27 01:22:01;;;;;;;38.40;20.40;;;;;;;-0.02;83.66;100048.66;105990;1280;22569;-73
2022/02/27 01:24:28;;;;;;;40.10;19.90;;;;;;;0.01;83.78;100045.98;106002;1278;138338;-73
2022/02/27 01:26:56;;;;;;;41.00;20.10;;;;;;;0.02;83.79;100046.95;106093;1280;25264;-72
2022/02/27 01:29:24;;;;;;;40.60;20.00;;;;;;;0.01;83.74;100046.67;105905;1280;137999;-72
2022/02/27 01:32:06;;;;;;;43.50;22.70;;;;;;;-0.01;83.90;100044.30;106018;1279;22708;-73
2022/02/27 01:34:33;;;;;;;42.70;21.40;;;;;;;-0.00;83.54;100044.63;106055;1280;22578;-72
2022/02/27 01:37:00;;;;;;;41.00;21.40;;;;;;;0.02;83.85;100039.83;105969;1280;138099;-73
2022/02/27 01:39:27;;;;;;;42.10;20.80;;;;;;;0.04;83.78;100042.08;106035;1280;25254;-73
2022/02/27 01:41:54;;;;;;;40.50;20.00;;;;;;;0.05;83.71;100040.11;105621;1280;138461;-72
2022/02/27 01:44:21;;;;;;;39.70;19.80;;;;;;;0.04;83.89;100039.80;106131;1280;22548;-73
2022/02/27 01:47:03;;;;;;;47.10;22.30;;;;;;;0.03;83.81;100041.85;106086;1280;25255;-73
2022/02/27 01:49:31;;;;;;;40.50;20.20;;;;;;;0.02;83.55;100045.03;106167;1280;138085;-73
2022/02/27 01:51:58;;;;;;;39.60;20.00;;;;;;;0.00;83.53;100041.20;106117;1278;23262;-73
2022/02/27 01:54:25;;;;;;;38.40;20.20;;;;;;;-0.02;83.49;100040.85;105803;1280;138305;-73
2022/02/27 01:56:52;;;;;;;37.70;19.10;;;;;;;-0.04;83.83;100041.57;105835;1280;22553;-74
2022/02/27 01:59:19;;;;;;;40.50;19.60;;;;;;;-0.06;83.69;100043.34;105677;1280;138110;-73
2022/02/27 02:01:46;;;;;;;40.80;19.50;;;;;;;-0.09;83.94;100045.94;105993;1280;22567;-73
2022/02/27 02:04:13;;;;;;;45.90;21.90;;;;;;;-0.12;84.06;100044.99;105994;1280;22979;-73
2022/02/27 02:06:41;;;;;;;47.90;21.60;;;;;;;-0.13;84.18;100042.91;106125;1280;138842;-72
2022/02/27 02:09:08;;;;;;;41.90;21.40;;;;;;;-0.11;84.24;100047.42;105837;1280;22567;-72
2022/02/27 02:11:38;;;;;;;46.60;21.40;;;;;;;-0.10;84.29;100052.08;105766;1280;138518;-75
2022/02/27 02:14:06;;;;;;;38.30;19.70;;;;;;;-0.09;84.31;100052.90;106087;1280;29683;-73
2022/02/27 02:16:52;;;;;;;40.90;19.90;;;;;;;-0.08;84.28;100048.70;105948;1280;22551;-73
2022/02/27 02:19:23;;;;;;;36.90;19.60;;;;;;;-0.09;84.37;100046.61;105855;1280;138960;-72
2022/02/27 02:21:57;;;;;;;41.40;21.00;;;;;;;-0.10;84.51;100049.83;105993;1280;22715;-72
2022/02/27 02:24:25;;;;;;;46.20;21.90;;;;;;;-0.10;84.70;100051.06;106322;1278;138565;-72
2022/02/27 02:26:52;;;;;;;40.70;21.30;;;;;;;-0.09;84.57;100052.19;106359;1280;23970;-72
2022/02/27 02:29:22;;;;;;;42.80;19.50;;;;;;;-0.06;84.47;100053.86;105975;1280;139256;-72
2022/02/27 02:31:56;;;;;;;37.70;20.50;;;;;;;-0.02;84.81;100053.89;105919;1280;22669;-72
2022/02/27 02:34:25;;;;;;;36.00;18.70;;;;;;;0.01;85.12;100053.77;105959;1279;22811;-72
2022/02/27 02:36:55;;;;;;;42.30;21.80;;;;;;;0.06;85.24;100056.26;105968;1280;137662;-72
2022/02/27 02:39:23;;;;;;;;;;;;;;;0.11;85.12;100056.42;105997;1280;25354;-72
2022/02/27 02:41:50;;;;;;;43.00;20.20;;;;;;;0.16;84.85;100054.21;105688;1280;124656;-72
2022/02/27 02:44:39;;;;;;;41.60;20.50;;;;;;;0.19;85.00;100052.20;105849;1280;25260;-72
2022/02/27 02:47:21;;;;;;;42.20;20.50;;;;;;;0.23;85.31;100057.02;105859;1280;138181;-72
2022/02/27 02:49:50;;;;;;;35.20;18.40;;;;;;;0.27;84.75;100053.42;105987;1280;25262;-72
2022/02/27 02:52:18;;;;;;;44.10;19.60;;;;;;;0.26;84.60;100049.80;105865;1278;22545;-72
2022/02/27 02:54:45;;;;;;;45.10;21.60;;;;;;;0.25;84.66;100052.92;105925;1280;137648;-72
2022/02/27 02:57:14;;;;;;;38.50;21.40;;;;;;;0.23;84.25;100054.66;106099;1280;22568;-72
2022/02/27 02:59:41;;;;;;;44.30;21.10;;;;;;;0.22;84.25;100055.33;105900;1280;138490;-72
2022/02/27 03:02:09;;;;;;;39.90;19.60;;;;;;;0.21;84.31;100055.94;106009;1280;24233;-72
2022/02/27 03:04:36;;;;;;;38.00;19.70;;;;;;;0.20;84.32;100056.00;106167;1280;23186;-72
2022/02/27 03:07:04;;;;;;;38.60;20.20;;;;;;;0.21;84.66;100059.86;106025;1277;137786;-72
2022/02/27 03:09:33;;;;;;;46.80;21.40;;;;;;;0.22;84.60;100059.22;106205;1278;22561;-71
2022/02/27 03:12:00;;;;;;;40.30;20.40;;;;;;;0.21;84.57;100060.06;106019;1278;137800;-72
2022/02/27 03:14:27;;;;;;;40.40;20.30;;;;;;;0.20;84.30;100064.77;105803;1280;22617;-72
2022/02/27 03:16:54;;;;;;;44.20;19.70;;;;;;;0.19;84.02;100067.88;105863;1280;26715;-71
2022/02/27 03:19:21;;;;;;;38.10;20.20;;;;;;;0.18;84.07;100068.55;105856;1279;138191;-71
2022/02/27 03:21:48;;;;;;;38.50;20.10;;;;;;;0.15;84.21;100067.70;105959;1280;25255;-71
2022/02/27 03:24:15;;;;;;;42.10;20.60;;;;;;;0.12;83.96;100072.61;106227;1280;137664;-71
2022/02/27 03:26:43;;;;;;;40.20;21.40;;;;;;;0.08;84.01;100071.38;105894;1280;22569;-71
2022/02/27 03:29:10;;;;;;;41.90;19.80;;;;;;;0.06;84.25;100076.55;105887;1280;22550;-73
2022/02/27 03:31:37;;;;;;;42.00;22.20;;;;;;;0.03;83.87;100073.95;105866;1280;138560;-71
2022/02/27 03:34:04;;;;;;;38.50;20.30;;;;;;;0.01;83.92;100072.06;106202;1280;22559;-72
2022/02/27 03:36:31;;;;;;;36.90;19.80;;;;;;;-0.02;84.23;100071.90;105993;1280;138525;-71
2022/02/27 03:38:59;;;;;;;43.50;20.50;;;;;;;-0.03;84.22;100071.45;105817;1280;25589;-71
2022/02/27 03:41:26;;;;;;;38.60;19.70;;;;;;;-0.02;84.25;100074.59;105889;1280;138231;-71
2022/02/27 03:43:53;;;;;;;41.80;21.10;;;;;;;-0.03;84.08;100076.27;106119;1280;25349;-71
2022/02/27 03:46:20;;;;;;;41.70;21.80;;;;;;;-0.07;84.16;100076.64;105802;1280;25265;-71
2022/02/27 03:48:47;;;;;;;40.00;22.10;;;;;;;-0.06;84.15;100084.08;105917;1280;138558;-71
2022/02/27 03:51:14;;;;;;;39.70;20.90;;;;;;;-0.07;83.94;100089.34;105921;1280;25387;-73
2022/02/27 03:53:41;;;;;;;41.50;20.40;;;;;;;-0.07;84.04;100088.10;105766;1280;138286;-70
2022/02/27 03:56:08;;;;;;;41.70;20.60;;;;;;;-0.07;84.29;100086.45;106032;1277;23810;-71
2022/02/27 03:58:35;;;;;;;40.00;21.10;;;;;;;-0.08;84.02;100084.38;105958;1280;24294;-70
2022/02/27 04:01:02;;;;;;;44.00;21.90;;;;;;;-0.10;84.18;100085.27;105771;1278;138600;-70
2022/02/27 04:03:28;;;;;;;43.00;21.50;;;;;;;-0.11;84.32;100083.24;106006;1278;22566;-71
2022/02/27 04:05:55;;;;;;;43.30;22.30;;;;;;;-0.12;84.18;100089.62;105847;1280;138726;-71
2022/02/27 04:08:22;;;;;;;44.70;21.30;;;;;;;-0.12;84.20;100092.66;105989;1280;24237;-71
2022/02/27 04:10:49;;;;;;;41.60;21.20;;;;;;;-0.11;84.19;100091.48;106036;1280;22567;-71
2022/02/27 04:13:16;;;;;;;39.40;20.50;;;;;;;-0.10;84.19;100086.88;105941;1280;137868;-72
2022/02/27 04:15:43;;;;;;;44.70;20.60;;;;;;;-0.10;84.32;100088.91;105930;1278;22569;-72
2022/02/27 04:18:10;;;;;;;40.40;19.10;;;;;;;-0.11;84.34;100091.50;105741;1277;138555;-71
2022/02/27 04:20:37;;;;;;;49.10;23.50;;;;;;;-0.13;84.51;100087.77;105939;1277;22565;-71
2022/02/27 04:23:04;;;;;;;42.00;21.30;;;;;;;-0.14;84.57;100089.21;105895;1280;22569;-71
2022/02/27 04:25:31;;;;;;;39.80;21.40;;;;;;;-0.14;84.52;100087.30;105805;1277;138244;-71
2022/02/27 04:27:58;;;;;;;38.80;20.70;;;;;;;-0.11;84.62;100085.59;105819;1280;22730;-71
2022/02/27 04:30:25;;;;;;;42.90;20.90;;;;;;;-0.08;84.65;100089.42;105848;1280;137937;-71
2022/02/27 04:32:52;;;;;;;43.70;21.80;;;;;;;-0.07;84.74;100084.29;105848;1279;25295;-71
2022/02/27 04:35:19;;;;;;;38.00;20.50;;;;;;;-0.06;84.48;100089.78;105720;1280;138096;-71
2022/02/27 04:37:45;;;;;;;43.30;22.50;;;;;;;-0.05;84.44;100088.23;105843;1277;22588;-71
2022/02/27 04:40:13;;;;;;;45.90;23.80;;;;;;;-0.05;84.45;100089.16;105905;1277;22561;-71
2022/02/27 04:42:41;;;;;;;50.00;23.60;;;;;;;-0.04;84.42;100086.40;105782;1278;138689;-71
2022/02/27 04:45:09;;;;;;;44.60;23.40;;;;;;;-0.04;84.45;100081.94;105857;1277;22564;-71
2022/02/27 04:47:36;;;;;;;40.90;22.60;;;;;;;-0.03;84.41;100083.05;105720;1280;137907;-71
2022/02/27 04:50:17;;;;;;;49.50;23.40;;;;;;;-0.03;84.59;100082.48;105870;1280;23265;-71
2022/02/27 04:52:44;;;;;;;44.50;21.40;;;;;;;-0.02;84.49;100083.17;105744;1280;24250;-71
2022/02/27 04:55:12;;;;;;;47.60;25.20;;;;;;;-0.04;84.32;100089.98;105783;1280;137921;-71
2022/02/27 04:57:39;;;;;;;48.60;24.60;;;;;;;-0.05;84.30;100087.36;105765;1280;32045;-71
2022/02/27 05:00:08;;;;;;;46.00;23.70;;;;;;;-0.04;84.10;100090.52;105922;1280;138880;-70
2022/02/27 05:02:35;;;;;;;43.00;21.90;;;;;;;-0.02;84.47;100090.67;105951;1278;22997;-71
2022/02/27 05:05:02;;;;;;;42.10;21.30;;;;;;;-0.02;84.05;100089.73;105895;1277;23952;-71
2022/02/27 05:07:30;;;;;;;46.30;22.10;;;;;;;-0.03;83.99;100086.79;105638;1280;137717;-71
2022/02/27 05:09:57;;;;;;;38.40;21.10;;;;;;;-0.03;83.99;100088.65;105848;1280;24241;-71
2022/02/27 05:12:24;;;;;;;43.90;22.10;;;;;;;-0.06;83.93;100092.62;105652;1280;137870;-71
2022/02/27 05:14:51;;;;;;;40.70;22.10;;;;;;;-0.08;83.91;100100.62;105813;1280;22723;-71
2022/02/27 05:17:18;;;;;;;48.40;22.20;;;;;;;-0.08;83.79;100099.75;105730;1280;138659;-71
2022/02/27 05:19:45;;;;;;;47.80;22.80;;;;;;;-0.08;83.85;100101.90;105844;1277;22548;-71
2022/02/27 05:22:12;;;;;;;47.60;23.10;;;;;;;-0.09;83.39;100109.33;105850;1277;25253;-71
2022/02/27 05:24:39;;;;;;;44.00;21.40;;;;;;;-0.12;83.45;100108.70;105713;1280;138118;-71
2022/02/27 05:27:06;;;;;;;43.30;23.30;;;;;;;-0.16;83.54;100113.33;105919;1278;22550;-71
2022/02/27 05:29:33;;;;;;;46.80;22.80;;;;;;;-0.20;83.27;100111.34;105754;1280;138384;-71
2022/02/27 05:32:00;;;;;;;42.20;21.70;;;;;;;-0.23;83.42;100116.94;105828;1280;23967;-72
2022/02/27 05:34:26;;;;;;;49.90;22.20;;;;;;;-0.25;83.39;100121.55;105728;1280;22552;-73
2022/02/27 05:36:54;;;;;;;36.80;21.10;;;;;;;-0.31;83.18;100120.31;105730;1278;138438;-73
2022/02/27 05:39:21;;;;;;;47.60;22.00;;;;;;;-0.34;83.46;100121.66;106030;1278;24409;-70
2022/02/27 05:41:48;;;;;;;39.80;22.90;;;;;;;-0.34;83.66;100121.31;105875;1278;138431;-71
2022/02/27 05:44:15;;;;;;;42.40;23.10;;;;;;;-0.34;83.64;100119.05;106049;1280;25264;-71
2022/02/27 05:46:42;;;;;;;44.20;21.90;;;;;;;-0.33;83.56;100125.68;106094;1277;22555;-71
2022/02/27 05:49:09;;;;;;;42.60;23.40;;;;;;;-0.32;83.60;100128.80;105955;1280;138352;-71
2022/02/27 05:51:36;;;;;;;43.90;22.50;;;;;;;-0.32;83.62;100133.30;106051;1279;22553;-73
2022/02/27 05:54:03;;;;;;;44.90;24.50;;;;;;;-0.33;83.34;100138.20;105924;1280;138176;-71
2022/02/27 05:56:30;;;;;;;53.00;26.60;;;;;;;-0.35;83.55;100141.56;105996;1280;24226;-71
2022/02/27 05:58:57;;;;;;;48.20;26.10;;;;;;;-0.37;83.59;100141.36;105982;1278;22730;-71
2022/02/27 06:01:24;;;;;;;50.10;23.90;;;;;;;-0.38;83.42;100147.52;105714;1280;138618;-71
2022/02/27 06:03:51;;;;;;;44.80;23.20;;;;;;;-0.37;83.58;100145.66;106011;1278;25322;-70
2022/02/27 06:06:18;;;;;;;38.80;21.70;;;;;;;-0.36;83.67;100153.85;105979;1278;138251;-71
2022/02/27 06:08:45;;;;;;;39.50;20.50;;;;;;;-0.37;83.77;100150.29;105853;1278;22552;-71
2022/02/27 06:11:11;;;;;;;44.60;21.10;;;;;;;-0.34;83.88;100156.14;106032;1280;25255;-71
2022/02/27 06:13:38;;;;;;;43.10;21.70;;;;;;;-0.30;84.03;100151.83;106094;1280;139076;-71
2022/02/27 06:16:05;;;;;;;39.70;20.80;;;;;;;-0.25;83.74;100158.52;106386;1280;22567;-71
2022/02/27 06:18:32;;;;;;;42.50;19.60;;;;;;;-0.21;83.56;100163.33;105986;1278;138292;-71
2022/02/27 06:20:59;;;;;;;38.80;18.70;;;;;;;-0.18;83.72;100164.93;106177;1278;22605;-71
2022/02/27 06:23:26;;;;;;;40.00;18.60;;;;;;;-0.16;83.40;100170.27;105783;1278;138384;-71
2022/02/27 06:25:53;;;;;;;34.90;19.10;;;;;;;-0.16;83.33;100174.77;105978;1277;23038;-73
2022/02/27 06:28:20;;;;;;;44.10;20.20;;;;;;;-0.18;82.87;100175.27;106334;1278;22571;-73
2022/02/27 06:30:47;;;;;;;41.30;20.90;;;;;;;-0.20;83.39;100177.90;105841;1280;138482;-73
2022/02/27 06:33:14;;;;;;;36.10;19.40;;;;;;;-0.20;83.13;100186.44;106330;1280;22603;-71
2022/02/27 06:35:41;;;;;;;39.50;20.00;;;;;;;-0.18;83.50;100186.81;105801;1280;138846;-71
2022/02/27 06:38:08;;;;;;;33.90;17.80;;;;;;;-0.14;83.54;100185.46;106097;1280;25375;-71
2022/02/27 06:40:35;;;;;;;36.20;18.20;;;;;;;-0.12;83.43;100183.66;106194;1280;22570;-71
2022/02/27 06:43:06;;;;;;;33.60;17.10;;;;;;;-0.10;83.50;100188.85;106068;1278;137776;-71
2022/02/27 06:45:34;;;;;;;35.20;17.80;;;;;;;-0.09;83.38;100191.80;106038;1281;22635;-71
2022/02/27 06:48:01;;;;;;;35.80;18.20;;;;;;;-0.07;83.66;100190.73;106042;1280;138936;-71
2022/02/27 06:50:28;;;;;;;32.10;16.50;;;;;;;-0.03;83.50;100191.04;106311;1281;22621;-71
2022/02/27 06:52:55;;;;;;;31.80;15.90;;;;;;;0.04;83.56;100186.02;106166;1279;25365;-72
2022/02/27 06:55:22;;;;;;;30.30;15.40;;;;;;;0.10;83.34;100189.95;105875;1280;137795;-71
2022/02/27 06:57:50;;;;;;;30.00;16.20;;;;;;;0.16;83.41;100192.79;105953;1278;25258;-71
2022/02/27 07:00:19;;;;;;;31.70;16.80;;;;;;;0.20;83.10;100196.44;106122;1277;138041;-71
2022/02/27 07:03:00;;;;;;;33.00;15.70;;;;;;;0.25;83.35;100199.20;105976;1278;22716;-71
2022/02/27 07:05:27;;;;;;;31.60;16.50;;;;;;;0.30;82.93;100203.40;105988;1278;138493;-71
2022/02/27 07:07:53;;;;;;;28.40;14.50;;;;;;;0.34;82.67;100201.56;106034;1278;24223;-70
2022/02/27 07:10:20;;;;;;;28.50;14.20;;;;;;;0.40;82.69;100200.00;105638;1280;22699;-71
2022/02/27 07:12:47;;;;;;;31.30;14.90;;;;;;;0.44;82.60;100204.08;106370;1279;137757;-71
2022/02/27 07:15:15;;;;;;;28.20;13.60;;;;;;;0.51;82.62;100208.70;105645;1280;25314;-71
2022/02/27 07:17:42;;;;;;;32.10;15.20;;;;;;;0.56;82.51;100209.65;105688;1281;138677;-71
2022/02/27 07:20:09;;;;;;;31.10;15.80;;;;;;;0.63;82.34;100207.80;105805;1277;25573;-71
2022/02/27 07:22:50;;;;;;;26.00;15.10;;;;;;;0.71;82.14;100204.36;105971;1278;22814;-71
2022/02/27 07:25:17;;;;;;;29.10;14.70;;;;;;;0.79;81.95;100203.55;105760;1277;138883;-72
2022/02/27 07:27:44;;;;;;;23.40;13.80;;;;;;;0.87;81.67;100208.96;106054;1278;22580;-71
2022/02/27 07:30:12;;;;;;;27.20;13.90;;;;;;;0.95;81.21;100202.40;105723;1281;137824;-71
2022/02/27 07:32:39;;;;;;;28.80;13.80;;;;;;;1.02;81.22;100205.14;105793;1281;25401;-71
2022/02/27 07:35:06;;;;;;;28.80;13.80;;;;;;;1.08;81.07;100206.22;106240;1281;22689;-71
2022/02/27 07:37:34;;;;;;;28.50;14.10;;;;;;;1.15;81.28;100202.35;105721;1282;137490;-71
2022/02/27 07:40:03;;;;;;;29.10;15.90;;;;;;;1.23;81.21;100201.81;106046;1278;22694;-71
2022/02/27 07:42:31;;;;;;;;;;;;;;;1.31;80.90;100201.95;105917;1277;286806;-71
2022/02/27 07:44:58;;;;;;;28.50;14.00;;;;;;;1.38;80.50;100196.90;106225;1277;22678;-71
2022/02/27 07:47:25;;;;;;;29.40;14.60;;;;;;;1.43;80.23;100199.58;106471;1277;138157;-71
2022/02/27 07:49:52;;;;;;;25.30;13.00;;;;;;;1.51;79.75;100197.81;106581;1278;25264;-71
2022/02/27 07:52:19;;;;;;;27.70;13.60;;;;;;;1.55;79.51;100194.95;105987;1280;22706;-71
2022/02/27 07:54:46;;;;;;;26.70;13.10;;;;;;;1.62;79.57;100195.73;105701;1281;137723;-71
2022/02/27 07:57:13;;;;;;;19.10;10.40;;;;;;;1.67;79.35;100198.04;105907;1280;22826;-71
2022/02/27 07:59:40;;;;;;;22.20;11.10;;;;;;;1.74;79.20;100200.14;106288;1278;137972;-71
2022/02/27 08:02:07;;;;;;;21.60;12.20;;;;;;;1.80;79.13;100199.05;106419;1281;22548;-71
2022/02/27 08:04:34;;;;;;;17.00;10.60;;;;;;;1.88;78.86;100200.38;106204;1281;22678;-71
2022/02/27 08:07:03;;;;;;;23.20;11.00;;;;;;;1.97;78.63;100201.92;105970;1277;137769;-71
2022/02/27 08:09:30;;;;;;;19.30;10.10;;;;;;;2.05;78.29;100203.73;106180;1277;22588;-71
2022/02/27 08:11:57;;;;;;;19.80;10.50;;;;;;;2.15;78.35;100201.30;105692;1280;138461;-71
2022/02/27 08:14:24;;;;;;;21.50;10.80;;;;;;;2.21;77.81;100203.73;105989;1281;25476;-71
2022/02/27 08:16:51;;;;;;;19.90;11.20;;;;;;;2.26;77.55;100203.36;105938;1281;24291;-73
2022/02/27 08:19:18;;;;;;;20.90;9.70;;;;;;;2.31;77.25;100201.17;105782;1278;137667;-71
2022/02/27 08:21:45;;;;;;;17.00;10.10;;;;;;;2.34;77.27;100203.54;105897;1278;22584;-72
2022/02/27 08:24:12;;;;;;;13.30;7.70;;;;;;;2.38;76.75;100199.52;105880;1277;137895;-72
2022/02/27 08:26:39;;;;;;;18.70;10.20;;;;;;;2.42;76.69;100198.59;105978;1278;22637;-72
2022/02/27 08:29:06;;;;;;;19.60;10.20;;;;;;;2.48;76.43;100200.07;106063;1277;22541;-72
2022/02/27 08:31:39;;;;;;;19.20;9.70;;;;;;;2.55;76.33;100197.73;105840;1278;138084;-73
2022/02/27 08:34:06;;;;;;;20.50;10.70;;;;;;;2.62;76.00;100196.48;105975;1280;25338;-73
2022/02/27 08:36:34;;;;;;;19.60;11.00;;;;;;;2.68;75.72;100197.73;106081;1280;140170;-73
2022/02/27 08:39:01;;;;;;;21.50;11.20;;;;;;;2.73;75.50;100199.35;105791;1281;22588;-72
2022/02/27 08:41:28;;;;;;;18.90;9.40;;;;;;;2.77;75.66;100195.39;106103;1277;138436;-72
2022/02/27 08:43:55;;;;;;;21.10;11.50;;;;;;;2.82;75.48;100194.02;105912;1277;22608;-72
2022/02/27 08:46:22;;;;;;;18.70;9.50;;;;;;;2.86;75.28;100195.55;105890;1278;25325;-73
2022/02/27 08:48:49;;;;;;;20.10;9.30;;;;;;;2.92;74.84;100198.06;105609;1277;137534;-72
2022/02/27 08:51:16;;;;;;;13.90;8.10;;;;;;;2.96;74.54;100194.45;105916;1277;22704;-71
2022/02/27 08:53:43;;;;;;;18.20;8.90;;;;;;;2.99;73.76;100195.36;105927;1281;137631;-70
2022/02/27 08:56:10;;;;;;;21.90;10.20;;;;;;;3.03;73.69;100194.92;105956;1281;22548;-70
2022/02/27 08:58:37;;;;;;;14.00;8.90;;;;;;;3.11;73.68;100199.03;105793;1281;25480;-70
2022/02/27 09:01:04;;;;;;;15.50;7.60;;;;;;;3.18;73.18;100193.98;105844;1277;137920;-70
2022/02/27 09:03:31;;;;;;;15.80;8.00;;;;;;;3.26;72.72;100193.65;106088;1277;24218;-70
2022/02/27 09:05:58;;;;;;;18.00;7.80;;;;;;;3.31;72.62;100190.90;106023;1277;137719;-71
2022/02/27 09:08:25;;;;;;;16.10;8.90;;;;;;;3.39;72.51;100192.07;106469;1278;22592;-70
2022/02/27 09:10:52;;;;;;;18.20;8.60;;;;;;;3.47;72.34;100187.87;106190;1277;22605;-71
2022/02/27 09:13:19;;;;;;;16.30;8.50;;;;;;;3.55;71.75;100186.91;105766;1280;137935;-71
2022/02/27 09:15:46;;;;;;;16.20;8.30;;;;;;;3.59;71.07;100182.47;106332;1281;22570;-71
2022/02/27 09:18:13;;;;;;;14.70;7.90;;;;;;;3.64;71.19;100181.47;105780;1279;137572;-71
2022/02/27 09:20:41;;;;;;;18.10;8.10;;;;;;;3.71;71.29;100185.05;105794;1277;25499;-71
2022/02/27 09:23:08;;;;;;;15.20;7.80;;;;;;;3.79;71.13;100182.30;106139;1277;25247;-71
2022/02/27 09:25:35;;;;;;;15.80;8.10;;;;;;;3.86;70.59;100180.48;106129;1277;137266;-71
2022/02/27 09:28:03;;;;;;;14.20;7.50;;;;;;;3.93;70.14;100179.34;106441;1278;22551;-71
2022/02/27 09:30:30;;;;;;;15.90;8.50;;;;;;;4.00;69.20;100182.43;106268;1278;138347;-71
2022/02/27 09:32:57;;;;;;;18.10;7.70;;;;;;;4.09;69.29;100175.24;106367;1279;22553;-71
2022/02/27 09:35:28;;;;;;;14.30;8.00;;;;;;;4.18;68.56;100173.23;106194;1280;137876;-71
2022/02/27 09:37:57;;;;;;;12.40;7.10;;;;;;;4.27;68.87;100177.27;106611;1280;24341;-71
2022/02/27 09:40:40;;;;;;;11.90;6.40;;;;;;;4.39;67.88;100179.42;106535;1280;23485;-71
2022/02/27 09:43:07;;;;;;;12.30;6.10;;;;;;;4.49;67.18;100172.21;106603;1278;137552;-71
2022/02/27 09:45:36;;;;;;;10.40;6.20;;;;;;;4.58;66.58;100168.60;106405;1277;25137;-71
2022/02/27 09:48:17;;;;;;;9.80;5.50;;;;;;;4.65;65.41;100169.63;106462;1277;137630;-71
2022/02/27 09:50:48;;;;;;;8.00;4.70;;;;;;;4.73;65.25;100163.81;106633;1277;23339;-72
2022/02/27 09:53:29;;;;;;;8.40;4.30;;;;;;;4.79;63.79;100161.20;106071;1281;137533;-72
2022/02/27 09:55:56;;;;;;;7.00;4.20;;;;;;;4.84;63.86;100157.42;106019;1281;22585;-72
2022/02/27 09:58:23;;;;;;;7.60;4.20;;;;;;;4.91;63.73;100155.03;106166;1281;22572;-72
2022/02/27 10:00:50;;;;;;;7.10;4.30;;;;;;;4.99;62.87;100154.30;105634;1284;137280;-72
2022/02/27 10:03:26;;;;;;;6.60;4.10;;;;;;;5.06;62.28;100154.59;105763;1280;25384;-72
2022/02/27 10:06:06;;;;;;;6.40;3.50;;;;;;;5.16;62.24;100152.77;105738;1277;137650;-72
2022/02/27 10:08:39;;;;;;;7.00;3.50;;;;;;;5.28;61.19;100151.00;105947;1278;24401;-72
2022/02/27 10:11:07;;;;;;;7.20;3.40;;;;;;;5.40;61.24;100150.92;106073;1278;23362;-72
2022/02/27 10:13:44;;;;;;;6.10;3.80;;;;;;;5.52;60.98;100151.02;105780;1280;137774;-72
2022/02/27 10:16:14;;;;;;;8.00;3.40;;;;;;;5.65;60.12;100146.16;106025;1279;22708;-72
2022/02/27 10:18:45;;;;;;;7.40;4.30;;;;;;;5.76;59.53;100145.46;105795;1280;137872;-71
2022/02/27 10:21:28;;;;;;;8.60;3.60;;;;;;;5.87;57.92;100139.69;105837;1280;22587;-71
2022/02/27 10:24:14;;;;;;;5.10;2.80;;;;;;;5.98;57.27;100129.39;105822;1280;137809;-71
2022/02/27 10:26:51;;;;;;;6.00;3.00;;;;;;;6.06;57.02;100126.26;106109;1277;25541;-72
2022/02/27 10:29:32;;;;;;;4.80;3.20;;;;;;;6.20;56.99;100128.30;105828;1277;137726;-72
2022/02/27 10:32:14;;;;;;;5.50;3.30;;;;;;;6.31;55.86;100121.41;105908;1278;25401;-73
2022/02/27 10:34:55;;;;;;;4.80;2.70;;;;;;;6.42;55.96;100113.15;105891;1280;24274;-73
2022/02/27 10:37:22;;;;;;;5.20;2.60;;;;;;;6.54;55.09;100107.27;105789;1280;137253;-73
2022/02/27 10:39:51;;;;;;;4.00;2.70;;;;;;;6.63;54.76;100106.54;105800;1280;25263;-73
2022/02/27 10:42:34;;;;;;;4.00;2.80;;;;;;;6.74;54.52;100102.06;105734;1280;137440;-73
2022/02/27 10:45:06;;;;;;;4.60;2.50;;;;;;;6.82;53.21;100103.80;106015;1277;24303;-73
2022/02/27 10:47:35;;;;;;;5.50;2.80;;;;;;;6.91;52.98;100099.59;105863;1277;138172;-73
2022/02/27 10:50:13;;;;;;;4.10;2.70;;;;;;;6.98;53.14;100096.77;105829;1277;26500;-74
2022/02/27 10:52:49;;;;;;;5.90;3.10;;;;;;;7.11;53.43;100098.02;105841;1278;22617;-74
2022/02/27 10:55:16;;;;;;;2.80;2.20;;;;;;;7.24;51.66;100093.70;105662;1280;138098;-74
2022/02/27 10:57:46;;;;;;;7.50;3.70;;;;;;;7.30;51.03;100094.02;105857;1280;22736;-74
2022/02/27 11:00:24;;;;;;;5.80;3.00;;;;;;;7.40;51.84;100088.08;105916;1280;137545;-74
2022/02/27 11:02:52;;;;;;;4.90;2.90;;;;;;;7.54;51.76;100085.13;105735;1280;25319;-73
2022/02/27 11:05:23;;;;;;;6.30;3.40;;;;;;;7.69;51.25;100079.25;106807;1277;22525;-74
2022/02/27 11:07:56;;;;;;;2.90;2.30;;;;;;;7.82;49.86;100072.09;106387;1278;137750;-74
2022/02/27 11:10:40;;;;;;;3.10;2.10;;;;;;;7.91;48.07;100072.36;106250;1278;24064;-74
2022/02/27 11:13:14;;;;;;;5.20;2.80;;;;;;;7.92;47.93;100065.52;106377;1280;137868;-74